createdAt,value
2022-12-16T00:00:37.789Z,-10.19
2022-12-16T00:03:25.104Z,-10.12
2022-12-16T00:05:55.491Z,-10.09
2022-12-16T00:08:23.891Z,-10.12
2022-12-16T00:10:59.303Z,-10.15
2022-12-16T00:13:28.944Z,-10.10
2022-12-16T00:15:58.258Z,-10.13
2022-12-16T00:18:27.151Z,-10.17
2022-12-16T00:20:56.240Z,-10.26
2022-12-16T00:23:24.594Z,-10.32
2022-12-16T00:25:53.332Z,-10.37
2022-12-16T00:28:25.334Z,-10.41
2022-12-16T00:30:56.183Z,-10.39
2022-12-16T00:33:26.995Z,-10.40
2022-12-16T00:35:56.612Z,-10.42
2022-12-16T00:38:27.300Z,-10.44
2022-12-16T00:40:55.835Z,-10.41
2022-12-16T00:43:24.331Z,-10.34
2022-12-16T00:45:52.812Z,-10.25
2022-12-16T00:48:24.015Z,-10.18
2022-12-16T00:50:55.870Z,-10.10
2022-12-16T00:53:25.950Z,-10.03
2022-12-16T00:56:09.676Z,-9.92
2022-12-16T00:59:02.739Z,-9.78
2022-12-16T01:01:31.394Z,-9.70
2022-12-16T01:04:00.007Z,-9.66
2022-12-16T01:06:28.418Z,-9.60
2022-12-16T01:08:56.736Z,-9.53
2022-12-16T01:11:25.090Z,-9.40
2022-12-16T01:13:55.285Z,-9.24
2022-12-16T01:16:23.907Z,-9.23
2022-12-16T01:18:52.373Z,-9.26
2022-12-16T01:21:20.714Z,-9.26
2022-12-16T01:23:48.967Z,-9.27
2022-12-16T01:26:18.977Z,-9.23
2022-12-16T01:28:50.572Z,-9.15
2022-12-16T01:31:20.812Z,-9.09
2022-12-16T01:33:49.450Z,-9.05
2022-12-16T01:36:18.005Z,-8.99
2022-12-16T01:38:47.017Z,-8.97
2022-12-16T01:41:17.362Z,-9.03
2022-12-16T01:43:46.831Z,-9.07
2022-12-16T01:46:15.188Z,-9.09
2022-12-16T01:48:54.586Z,-9.07
2022-12-16T01:51:31.168Z,-9.05
2022-12-16T01:54:08.185Z,-9.10
2022-12-16T01:56:40.250Z,-9.13
2022-12-16T01:59:36.260Z,-9.16
2022-12-16T02:02:05.679Z,-9.17
2022-12-16T02:04:34.227Z,-9.10
2022-12-16T02:07:02.607Z,-9.00
2022-12-16T02:09:31.012Z,-8.90
2022-12-16T02:12:17.717Z,-8.84
2022-12-16T02:15:08.785Z,-8.89
2022-12-16T02:18:06.232Z,-8.92
2022-12-16T02:21:08.732Z,-8.89
2022-12-16T02:23:39.694Z,-8.85
2022-12-16T02:26:36.928Z,-8.77
2022-12-16T02:29:23.191Z,-8.59
2022-12-16T02:32:03.320Z,-8.51
2022-12-16T02:34:47.424Z,-8.54
2022-12-16T02:37:34.347Z,-8.52
2022-12-16T02:40:08.547Z,-8.43
2022-12-16T02:42:47.776Z,-8.42
2022-12-16T02:45:25.705Z,-8.46
2022-12-16T02:47:54.064Z,-8.49
2022-12-16T02:50:39.910Z,-8.50
2022-12-16T02:53:10.114Z,-8.43
2022-12-16T02:56:21.364Z,-8.35
2022-12-16T02:59:52.397Z,-8.37
2022-12-16T03:02:54.442Z,-8.33
2022-12-16T03:05:57.094Z,-8.25
2022-12-16T03:08:39.782Z,-8.16
2022-12-16T03:11:08.631Z,-8.13
2022-12-16T03:13:45.167Z,-8.12
2022-12-16T03:16:16.681Z,-8.09
2022-12-16T03:18:50.715Z,-8.00
2022-12-16T03:21:22.779Z,-7.93
2022-12-16T03:23:58.885Z,-7.92
2022-12-16T03:26:51.951Z,-7.95
2022-12-16T03:32:56.235Z,-7.84
2022-12-16T03:35:43.035Z,-7.71
2022-12-16T03:38:14.694Z,-7.61
2022-12-16T03:40:45.077Z,-7.56
2022-12-16T03:43:15.761Z,-7.48
2022-12-16T03:45:48.405Z,-7.45
2022-12-16T03:48:19.209Z,-7.49
2022-12-16T03:50:47.598Z,-7.57
2022-12-16T03:53:15.891Z,-7.59
2022-12-16T03:55:44.676Z,-7.61
2022-12-16T03:58:12.919Z,-7.64
2022-12-16T04:00:41.468Z,-7.65
2022-12-16T04:03:10.046Z,-7.66
2022-12-16T04:05:38.896Z,-7.69
2022-12-16T04:08:07.338Z,-7.71
2022-12-16T04:10:54.175Z,-7.75
2022-12-16T04:13:42.412Z,-7.79
2022-12-16T04:16:35.207Z,-7.78
2022-12-16T04:19:22.477Z,-7.76
2022-12-16T04:22:09.922Z,-7.74
2022-12-16T04:24:38.718Z,-7.71
2022-12-16T04:27:25.207Z,-7.64
2022-12-16T04:30:13.129Z,-7.56
2022-12-16T04:33:00.701Z,-7.54
2022-12-16T04:35:48.250Z,-7.48
2022-12-16T04:38:35.516Z,-7.40
2022-12-16T04:41:22.829Z,-7.33
2022-12-16T04:44:10.368Z,-7.31
2022-12-16T04:46:57.726Z,-7.30
2022-12-16T04:49:44.665Z,-7.35
2022-12-16T04:52:32.656Z,-7.39
2022-12-16T04:55:19.759Z,-7.44
2022-12-16T04:58:15.511Z,-7.50
2022-12-16T05:01:46.647Z,-7.56
2022-12-16T05:04:33.689Z,-7.64
2022-12-16T05:07:20.968Z,-7.68
2022-12-16T05:10:08.240Z,-7.71
2022-12-16T05:12:55.516Z,-7.70
2022-12-16T05:15:42.404Z,-7.70
2022-12-16T05:18:32.207Z,-7.71
2022-12-16T05:21:21.168Z,-7.74
2022-12-16T05:24:08.291Z,-7.75
2022-12-16T05:26:55.382Z,-7.71
2022-12-16T05:29:42.429Z,-7.62
2022-12-16T05:32:29.262Z,-7.51
2022-12-16T05:35:16.466Z,-7.39
2022-12-16T05:38:03.923Z,-7.29
2022-12-16T05:40:50.978Z,-7.24
2022-12-16T05:43:37.779Z,-7.14
2022-12-16T05:46:25.381Z,-7.12
2022-12-16T05:49:29.334Z,-7.06
2022-12-16T05:52:16.410Z,-6.96
2022-12-16T05:55:03.351Z,-6.91
2022-12-16T05:57:50.320Z,-6.86
2022-12-16T06:01:02.738Z,-6.83
2022-12-16T06:03:49.673Z,-6.84
2022-12-16T06:06:36.781Z,-6.90
2022-12-16T06:09:24.268Z,-6.98
2022-12-16T06:12:11.272Z,-7.02
2022-12-16T06:14:58.385Z,-7.05
2022-12-16T06:17:45.333Z,-7.08
2022-12-16T06:20:32.542Z,-7.12
2022-12-16T06:23:24.000Z,-7.15
2022-12-16T06:26:12.808Z,-7.17
2022-12-16T06:28:59.657Z,-7.16
2022-12-16T06:31:46.645Z,-7.12
2022-12-16T06:34:36.258Z,-7.07
2022-12-16T06:37:23.424Z,-7.03
2022-12-16T06:40:10.315Z,-6.99
2022-12-16T06:43:00.920Z,-6.91
2022-12-16T06:45:48.161Z,-6.80
2022-12-16T06:48:35.161Z,-6.74
2022-12-16T06:51:21.902Z,-6.66
2022-12-16T06:54:08.919Z,-6.60
2022-12-16T06:56:55.936Z,-6.51
2022-12-16T06:59:42.879Z,-6.44
2022-12-16T07:02:30.945Z,-6.39
2022-12-16T07:05:18.381Z,-6.39
2022-12-16T07:08:10.122Z,-6.37
2022-12-16T07:11:06.127Z,-6.32
2022-12-16T07:14:10.195Z,-6.31
2022-12-16T07:16:57.119Z,-6.30
2022-12-16T07:19:44.105Z,-6.29
2022-12-16T07:22:31.089Z,-6.30
2022-12-16T07:25:18.233Z,-6.31
2022-12-16T07:28:09.461Z,-6.34
2022-12-16T07:31:02.680Z,-6.38
2022-12-16T07:33:49.622Z,-6.40
2022-12-16T07:36:36.850Z,-6.42
2022-12-16T07:39:23.744Z,-6.40
2022-12-16T07:42:10.480Z,-6.38
2022-12-16T07:44:57.547Z,-6.34
2022-12-16T07:47:44.314Z,-6.31
2022-12-16T07:50:31.790Z,-6.28
2022-12-16T07:53:19.708Z,-6.24
2022-12-16T07:56:06.983Z,-6.21
2022-12-16T07:58:54.021Z,-6.18
2022-12-16T08:01:42.405Z,-6.12
2022-12-16T08:04:29.395Z,-6.05
2022-12-16T08:07:16.800Z,-5.99
2022-12-16T08:10:03.631Z,-5.93
2022-12-16T08:12:50.551Z,-5.86
2022-12-16T08:15:38.059Z,-5.82
2022-12-16T08:18:25.653Z,-5.81
2022-12-16T08:21:13.068Z,-5.76
2022-12-16T08:23:59.964Z,-5.70
2022-12-16T08:26:47.042Z,-5.63
2022-12-16T08:29:49.197Z,-5.60
2022-12-16T08:32:36.575Z,-5.58
2022-12-16T08:35:24.021Z,-5.59
2022-12-16T08:38:15.302Z,-5.58
2022-12-16T08:41:03.911Z,-5.56
2022-12-16T08:43:52.864Z,-5.53
2022-12-16T08:46:40.068Z,-5.47
2022-12-16T08:49:26.908Z,-5.41
2022-12-16T08:52:14.177Z,-5.34
2022-12-16T08:55:01.235Z,-5.27
2022-12-16T08:57:48.675Z,-5.21
2022-12-16T09:00:37.080Z,-5.16
2022-12-16T09:03:24.101Z,-5.07
2022-12-16T09:06:11.232Z,-4.98
2022-12-16T09:08:58.605Z,-4.90
2022-12-16T09:11:46.069Z,-4.85
2022-12-16T09:14:33.252Z,-4.82
2022-12-16T09:17:20.284Z,-4.77
2022-12-16T09:20:07.341Z,-4.70
2022-12-16T09:22:54.252Z,-4.63
2022-12-16T09:25:42.366Z,-4.58
2022-12-16T09:28:29.689Z,-4.52
2022-12-16T09:31:16.743Z,-4.45
2022-12-16T09:34:03.759Z,-4.41
2022-12-16T09:36:50.949Z,-4.35
2022-12-16T09:39:38.261Z,-4.31
2022-12-16T09:42:30.639Z,-4.33
2022-12-16T09:45:38.742Z,-4.33
2022-12-16T09:48:38.879Z,-4.28
2022-12-16T09:51:27.215Z,-4.21
2022-12-16T09:54:15.793Z,-4.10
2022-12-16T09:57:04.393Z,-4.03
2022-12-16T09:59:59.779Z,-4.01
2022-12-16T10:02:47.052Z,-3.99
2022-12-16T10:05:41.743Z,-3.91
2022-12-16T10:08:44.169Z,-3.80
2022-12-16T10:11:56.540Z,-3.76
2022-12-16T10:14:55.427Z,-3.71
2022-12-16T10:17:45.178Z,-3.65
2022-12-16T10:21:01.443Z,-3.65
2022-12-16T10:23:56.647Z,-3.67
2022-12-16T10:27:00.760Z,-3.74
2022-12-16T10:29:51.784Z,-3.74
2022-12-16T10:33:06.814Z,-3.73
2022-12-16T10:36:11.826Z,-3.66
2022-12-16T10:39:07.665Z,-3.61
2022-12-16T10:41:58.715Z,-3.59
2022-12-16T10:44:53.163Z,-3.58
2022-12-16T10:47:43.196Z,-3.54
2022-12-16T10:50:35.043Z,-3.50
2022-12-16T10:53:29.683Z,-3.48
2022-12-16T10:56:38.673Z,-3.47
2022-12-16T10:59:28.217Z,-3.46
2022-12-16T11:02:35.860Z,-3.43
2022-12-16T11:05:41.764Z,-3.44
2022-12-16T11:08:55.819Z,-3.49
2022-12-16T11:11:45.960Z,-3.53
2022-12-16T11:14:37.763Z,-3.55
2022-12-16T11:17:45.581Z,-3.50
2022-12-16T11:20:34.925Z,-3.46
2022-12-16T11:23:42.301Z,-3.49
2022-12-16T11:26:38.217Z,-3.58
2022-12-16T11:29:32.840Z,-3.60
2022-12-16T11:32:21.773Z,-3.58
2022-12-16T11:35:13.735Z,-3.61
2022-12-16T11:38:02.206Z,-3.62
2022-12-16T11:40:50.479Z,-3.61
2022-12-16T11:43:40.046Z,-3.61
2022-12-16T11:46:38.253Z,-3.62
2022-12-16T11:49:32.742Z,-3.63
2022-12-16T11:52:38.199Z,-3.66
2022-12-16T11:59:06.748Z,-3.67
2022-12-16T12:02:17.097Z,-3.71
2022-12-16T12:05:09.395Z,-3.83
2022-12-16T12:08:37.609Z,-3.92
2022-12-16T12:11:51.500Z,-3.93
2022-12-16T12:14:38.527Z,-3.89
2022-12-16T12:17:44.071Z,-3.90
2022-12-16T12:21:06.122Z,-3.90
2022-12-16T12:24:35.118Z,-3.90
2022-12-16T12:27:31.969Z,-3.88
2022-12-16T12:30:33.935Z,-3.84
2022-12-16T12:33:57.033Z,-3.86
2022-12-16T12:37:08.192Z,-3.88
2022-12-16T12:40:05.832Z,-3.89
2022-12-16T12:43:09.884Z,-3.94
2022-12-16T12:46:13.974Z,-3.95
2022-12-16T12:49:13.513Z,-3.94
2022-12-16T12:52:18.421Z,-3.97
2022-12-16T12:55:05.549Z,-4.02
2022-12-16T12:57:57.477Z,-4.01
2022-12-16T13:00:48.108Z,-3.99
2022-12-16T13:03:58.489Z,-3.97
2022-12-16T13:06:46.575Z,-3.99
2022-12-16T13:09:48.950Z,-4.02
2022-12-16T13:12:41.055Z,-4.00
2022-12-16T13:15:50.075Z,-3.98
2022-12-16T13:18:44.675Z,-4.05
2022-12-16T13:21:56.838Z,-4.05
2022-12-16T13:25:11.008Z,-4.05
2022-12-16T13:28:08.790Z,-4.09
2022-12-16T13:30:56.455Z,-4.16
2022-12-16T13:33:43.621Z,-4.15
2022-12-16T13:36:32.509Z,-4.15
2022-12-16T13:39:40.425Z,-4.20
2022-12-16T13:43:13.986Z,-4.28
2022-12-16T13:46:24.343Z,-4.39
2022-12-16T13:49:12.021Z,-4.48
2022-12-16T13:51:59.071Z,-4.53
2022-12-16T13:55:04.119Z,-4.59
2022-12-16T13:57:58.265Z,-4.61
2022-12-16T14:00:48.302Z,-4.68
2022-12-16T14:03:46.775Z,-4.72
2022-12-16T14:06:42.012Z,-4.73
2022-12-16T14:09:51.653Z,-4.76
2022-12-16T14:13:18.467Z,-4.83
2022-12-16T14:16:10.669Z,-4.89
2022-12-16T14:19:24.245Z,-4.91
2022-12-16T14:22:23.028Z,-4.97
2022-12-16T14:25:09.936Z,-4.99
2022-12-16T14:27:57.113Z,-5.02
2022-12-16T14:30:45.510Z,-5.03
2022-12-16T14:33:47.037Z,-5.02
2022-12-16T14:36:58.398Z,-5.05
2022-12-16T14:39:55.287Z,-5.13
2022-12-16T14:42:48.647Z,-5.17
2022-12-16T14:45:54.046Z,-5.19
2022-12-16T14:48:59.897Z,-5.22
2022-12-16T14:51:50.074Z,-5.25
2022-12-16T14:54:45.838Z,-5.28
2022-12-16T14:57:39.368Z,-5.27
2022-12-16T15:00:26.748Z,-5.30
2022-12-16T15:03:15.367Z,-5.33
2022-12-16T15:06:03.624Z,-5.34
2022-12-16T15:08:56.175Z,-5.36
2022-12-16T15:11:44.428Z,-5.38
2022-12-16T15:14:37.929Z,-5.40
2022-12-16T15:17:25.710Z,-5.41
2022-12-16T15:20:13.544Z,-5.41
2022-12-16T15:23:07.238Z,-5.44
2022-12-16T15:25:56.965Z,-5.47
2022-12-16T15:29:07.056Z,-5.49
2022-12-16T15:32:02.666Z,-5.50
2022-12-16T15:35:12.571Z,-5.54
2022-12-16T15:38:04.565Z,-5.58
2022-12-16T15:40:57.501Z,-5.61
2022-12-16T15:43:57.306Z,-5.63
2022-12-16T15:46:47.801Z,-5.66
2022-12-16T15:50:03.628Z,-5.70
2022-12-16T15:52:51.611Z,-5.75
2022-12-16T15:55:43.426Z,-5.77
2022-12-16T15:58:57.354Z,-5.79
2022-12-16T16:01:46.837Z,-5.82
2022-12-16T16:04:44.804Z,-5.84
2022-12-16T16:07:43.452Z,-5.85
2022-12-16T16:10:37.514Z,-5.85
2022-12-16T16:13:25.130Z,-5.82
2022-12-16T16:16:12.809Z,-5.83
2022-12-16T16:19:01.309Z,-5.82
2022-12-16T16:21:49.663Z,-5.83
2022-12-16T16:24:36.698Z,-5.83
2022-12-16T16:27:30.443Z,-5.82
2022-12-16T16:30:18.096Z,-5.84
2022-12-16T16:33:05.162Z,-5.87
2022-12-16T16:35:52.956Z,-5.88
2022-12-16T16:38:40.120Z,-5.87
2022-12-16T16:41:34.737Z,-5.86
2022-12-16T16:44:22.400Z,-5.88
2022-12-16T16:47:09.358Z,-5.87
2022-12-16T16:50:00.885Z,-5.88
2022-12-16T16:52:48.673Z,-5.87
2022-12-16T16:55:38.818Z,-5.89
2022-12-16T16:58:32.119Z,-5.91
2022-12-16T17:01:21.011Z,-5.90
2022-12-16T17:04:08.486Z,-5.88
2022-12-16T17:06:56.036Z,-5.89
2022-12-16T17:09:43.299Z,-5.90
2022-12-16T17:12:50.036Z,-5.90
2022-12-16T17:15:41.480Z,-5.90
2022-12-16T17:18:29.558Z,-5.90
2022-12-16T17:21:16.896Z,-5.90
2022-12-16T17:24:04.052Z,-5.90
2022-12-16T17:26:51.348Z,-5.87
2022-12-16T17:29:42.658Z,-5.87
2022-12-16T17:32:29.960Z,-5.90
2022-12-16T17:35:17.384Z,-5.91
2022-12-16T17:38:04.593Z,-5.91
2022-12-16T17:40:51.661Z,-5.90
2022-12-16T17:43:38.949Z,-5.90
2022-12-16T17:46:29.703Z,-5.89
2022-12-16T17:49:17.808Z,-5.88
2022-12-16T17:52:05.136Z,-5.89
2022-12-16T17:54:52.331Z,-5.90
2022-12-16T17:57:39.505Z,-5.91
2022-12-16T18:00:27.682Z,-5.92
2022-12-16T18:03:14.937Z,-5.93
2022-12-16T18:06:02.759Z,-5.93
2022-12-16T18:08:51.546Z,-5.92
2022-12-16T18:11:39.423Z,-5.91
2022-12-16T18:14:26.449Z,-5.92
2022-12-16T18:17:13.538Z,-5.95
2022-12-16T18:20:00.541Z,-5.95
2022-12-16T18:22:48.190Z,-5.96
2022-12-16T18:25:35.207Z,-5.96
2022-12-16T18:28:23.605Z,-5.94
2022-12-16T18:31:10.673Z,-5.93
2022-12-16T18:33:58.424Z,-5.91
2022-12-16T18:36:45.769Z,-5.91
2022-12-16T18:39:33.043Z,-5.92
2022-12-16T18:42:20.748Z,-5.92
2022-12-16T18:45:09.861Z,-5.90
2022-12-16T18:47:57.818Z,-5.88
2022-12-16T18:50:59.640Z,-5.88
2022-12-16T18:53:48.000Z,-5.89
2022-12-16T18:56:37.233Z,-5.88
2022-12-16T18:59:25.556Z,-5.88
2022-12-16T19:02:13.144Z,-5.89
2022-12-16T19:05:01.437Z,-5.88
2022-12-16T19:07:49.771Z,-5.88
2022-12-16T19:10:38.722Z,-5.87
2022-12-16T19:13:26.749Z,-5.84
2022-12-16T19:16:15.962Z,-5.82
2022-12-16T19:19:03.808Z,-5.82
2022-12-16T19:21:56.333Z,-5.83
2022-12-16T19:24:44.408Z,-5.83
2022-12-16T19:27:32.442Z,-5.81
2022-12-16T19:30:20.503Z,-5.79
2022-12-16T19:33:08.380Z,-5.79
2022-12-16T19:35:57.300Z,-5.80
2022-12-16T19:38:44.461Z,-5.80
2022-12-16T19:41:36.273Z,-5.78
2022-12-16T19:44:23.760Z,-5.75
2022-12-16T19:47:12.355Z,-5.74
2022-12-16T19:49:59.748Z,-5.71
2022-12-16T19:52:47.525Z,-5.68
2022-12-16T19:55:34.836Z,-5.68
2022-12-16T19:58:24.240Z,-5.67
2022-12-16T20:01:14.614Z,-5.67
2022-12-16T20:04:02.187Z,-5.69
2022-12-16T20:06:50.317Z,-5.69
2022-12-16T20:09:38.051Z,-5.69
2022-12-16T20:12:26.083Z,-5.68
2022-12-16T20:15:14.936Z,-5.65
2022-12-16T20:18:05.417Z,-5.64
2022-12-16T20:20:54.339Z,-5.62
2022-12-16T20:23:43.228Z,-5.61
2022-12-16T20:26:31.857Z,-5.62
2022-12-16T20:29:19.579Z,-5.62
2022-12-16T20:32:08.127Z,-5.61
2022-12-16T20:34:57.831Z,-5.60
2022-12-16T20:37:45.531Z,-5.60
2022-12-16T20:40:33.968Z,-5.57
2022-12-16T20:43:21.108Z,-5.53
2022-12-16T20:46:08.850Z,-5.54
2022-12-16T20:48:57.752Z,-5.60
2022-12-16T20:51:45.046Z,-5.61
2022-12-16T20:54:32.229Z,-5.59
2022-12-16T20:57:19.558Z,-5.58
2022-12-16T21:00:06.857Z,-5.58
2022-12-16T21:02:54.116Z,-5.56
2022-12-16T21:05:43.994Z,-5.54
2022-12-16T21:08:31.730Z,-5.57
2022-12-16T21:11:19.379Z,-5.61
2022-12-16T21:14:07.362Z,-5.64
2022-12-16T21:16:54.550Z,-5.66
2022-12-16T21:19:44.173Z,-5.67
2022-12-16T21:22:35.567Z,-5.69
2022-12-16T21:25:24.963Z,-5.69
2022-12-16T21:28:18.815Z,-5.69
2022-12-16T21:31:07.169Z,-5.66
2022-12-16T21:33:53.925Z,-5.63
2022-12-16T21:36:42.600Z,-5.64
2022-12-16T21:39:29.724Z,-5.67
2022-12-16T21:42:16.650Z,-5.69
2022-12-16T21:45:03.688Z,-5.74
2022-12-16T21:47:50.865Z,-5.78
2022-12-16T21:50:39.101Z,-5.81
2022-12-16T21:53:26.200Z,-5.84
2022-12-16T21:56:14.742Z,-5.88
2022-12-16T21:59:02.749Z,-5.91
2022-12-16T22:01:50.059Z,-5.92
2022-12-16T22:04:37.114Z,-5.93
2022-12-16T22:07:24.725Z,-5.93
2022-12-16T22:10:12.161Z,-5.95
2022-12-16T22:12:59.181Z,-5.94
2022-12-16T22:15:46.467Z,-5.93
2022-12-16T22:18:35.971Z,-5.95
2022-12-16T22:21:25.228Z,-5.96
2022-12-16T22:24:12.713Z,-5.96
2022-12-16T22:27:00.180Z,-5.93
2022-12-16T22:29:47.471Z,-5.96
2022-12-16T22:32:34.846Z,-5.97
2022-12-16T22:35:21.631Z,-5.96
2022-12-16T22:38:08.636Z,-5.97
2022-12-16T22:40:56.688Z,-5.98
2022-12-16T22:43:50.917Z,-5.99
2022-12-16T22:46:39.077Z,-6.01
2022-12-16T22:49:26.005Z,-6.03
2022-12-16T22:52:13.228Z,-6.03
2022-12-16T22:55:00.988Z,-6.02
2022-12-16T22:57:50.880Z,-6.03
2022-12-16T23:00:41.495Z,-6.03
2022-12-16T23:03:35.394Z,-6.00
2022-12-16T23:06:22.578Z,-5.95
2022-12-16T23:09:09.793Z,-5.96
2022-12-16T23:11:59.129Z,-5.98
2022-12-16T23:14:46.551Z,-6.00
2022-12-16T23:17:33.711Z,-6.04
2022-12-16T23:20:20.891Z,-6.07
2022-12-16T23:23:07.788Z,-6.11
2022-12-16T23:25:55.135Z,-6.14
2022-12-16T23:29:02.719Z,-6.15
2022-12-16T23:31:49.945Z,-6.16
2022-12-16T23:34:42.271Z,-6.18
2022-12-16T23:37:33.580Z,-6.19
2022-12-16T23:40:20.997Z,-6.20
2022-12-16T23:43:08.392Z,-6.26
2022-12-16T23:45:56.283Z,-6.27
2022-12-16T23:48:43.517Z,-6.25
2022-12-16T23:51:30.745Z,-6.25
2022-12-16T23:54:17.636Z,-6.24
2022-12-16T23:57:04.540Z,-6.25
2022-12-16T23:59:52.842Z,-6.18
